Impacts METAR Board
IDs:

KACT - Waco Rgnl, TX, US

Updated at: 2300 UTC 18 Oct 2019
Potential Impact None Slight Moderate High
Time 18/11Z 18/12Z 18/13Z 18/14Z 18/15Z 18/16Z 18/17Z 18/18Z 18/19Z 18/20Z 18/21Z 18/22Z 18/23Z
Temp48 48 48 55 60 64 67 71 74 77 79 78 77
Dewpt45 45 46 51 52 50 49 45 39 37 36 37 38
Altim29.92 29.91 29.90 29.91 29.91 29.90 29.89 29.85 29.80 29.77 29.75 29.73 29.73
VIS10 10 10 10 10 10 10 10 10 10 10 10 10
CIG-- -- -- -- -- -- -- -- -- -- -- -- --
CoverCLRCLRCLRCLRCLRCLRCLRCLRCLRCLRCLRCLRCLR
FltCatVFRVFRVFRVFRVFRVFRVFRVFRVFRVFRVFRVFRVFR
WX--------------------------
WDir1101201601601700110160170150140
WSpd 4 4 4 6 7 6 7 7 8 9 8
WGst-- -- -- -- -- -- -- -- -- -- -- -- --
Raw hourly METARs
KACT 181051Z AUTO 10SM CLR 09/07 A2992 RMK AO2 SLP127 T00890072 $
KACT 181151Z 10SM CLR 09/07 A2991 RMK AO2 SLP126 T00890072 10139 20083 50001 $
KACT 181251Z COR 11004KT 10SM CLR 09/08 A2990 RMK AO2 SLP123 T00890078 $
KACT 181351Z 12004KT 10SM CLR 13/11 A2991 RMK AO2 SLP124 T01280106
KACT 181451Z 16004KT 10SM CLR 16/11 A2991 RMK AO2 SLP126 T01560111 55001
KACT 181551Z 16006KT 10SM CLR 18/10 A2990 RMK AO2 SLP122 T01780100
KACT 181651Z 17007KT 10SM CLR 19/09 A2989 RMK AO2 SLP116 T01940094
KACT 181751Z VRB06KT 10SM CLR 22/07 A2985 RMK AO2 SLP105 T02170072 10222 20083 58019
KACT 181851Z 11007KT 10SM CLR 23/04 A2980 RMK AO2 SLP087 T02330039
KACT 181951Z 16007KT 10SM CLR 25/03 A2977 RMK AO2 SLP077 T02500028
KACT 182051Z 17008KT 10SM CLR 26/02 A2975 RMK AO2 SLP068 T02610022 56035
KACT 182151Z 15009KT 10SM CLR 26/03 A2973 RMK AO2 SLP063 T02560028
KACT 182251Z 14008KT 10SM CLR 25/03 A2973 RMK AO2 SLP062 T02500033